Time;durP1;ratioP1;P1;durP2;ratioP2;P2;SDS_P1;SDS_P2;PMS_P1;PMS_P2;Temp;Humidity;BMP_temperature;BMP_pressure;BME280_temperature;BME280_humidity;BME280_pressure;Samples;Min_cycle;Max_cycle;Signal;HPM_P1;HPM_P2
2024/01/07 00:02:11;;;;;;;;;0.00;0.00;;;;;7.53;100.00;101486.34;5021872;28;46520;-94
2024/01/07 00:04:37;;;;;;;;;0.00;0.00;;;;;7.35;100.00;101484.69;5038131;28;51299;-94
2024/01/07 00:07:03;;;;;;;;;0.00;0.00;;;;;7.29;100.00;101495.94;5038441;28;45255;-94
2024/01/07 00:09:28;;;;;;;;;0.00;0.00;;;;;7.26;100.00;101488.19;5055491;28;45598;-94
2024/01/07 00:11:54;;;;;;;;;0.00;0.00;;;;;7.44;100.00;101502.78;5039227;28;53961;-94
2024/01/07 00:14:19;;;;;;;;;0.00;0.00;;;;;7.30;100.00;101495.06;5038323;28;45334;-94
2024/01/07 00:16:45;;;;;;;;;0.00;0.00;;;;;7.22;100.00;101490.78;5038412;28;45319;-95
2024/01/07 00:19:10;;;;;;;;;0.00;0.00;;;;;7.22;100.00;101498.53;5039524;28;45323;-95
2024/01/07 00:21:35;;;;;;;;;0.00;0.00;;;;;7.17;100.00;101499.41;5037869;28;49622;-94
2024/01/07 00:24:01;;;;;;;;;0.00;0.00;;;;;7.12;100.00;101508.91;5038647;28;53559;-94
2024/01/07 00:26:26;;;;;;;;;0.00;0.00;;;;;7.05;100.00;101502.03;5037811;28;58373;-95
2024/01/07 00:28:51;;;;;;;;;0.00;0.00;;;;;7.02;100.00;101506.34;5038411;28;45464;-94
2024/01/07 00:31:17;;;;;;;;;0.00;0.00;;;;;7.02;100.00;101501.16;5037298;28;46963;-94
2024/01/07 00:33:42;;;;;;;;;0.00;0.00;;;;;6.97;100.00;101504.63;5038088;28;45385;-94
2024/01/07 00:36:08;;;;;;;;;0.00;0.00;;;;;6.99;100.00;101504.63;5054729;28;45333;-94
2024/01/07 00:38:33;;;;;;;;;0.00;0.00;;;;;7.01;100.00;101510.69;5055064;28;45338;-94
2024/01/07 00:40:58;;;;;;;;;0.00;0.00;;;;;7.03;100.00;101511.53;5037908;28;58837;-93
2024/01/07 00:43:24;;;;;;;;;0.00;0.00;;;;;7.05;100.00;101506.34;5037550;28;59784;-93
2024/01/07 00:45:49;;;;;;;;;0.00;0.00;;;;;7.06;100.00;101500.31;5038086;28;47971;-95
2024/01/07 00:48:15;;;;;;;;;0.00;0.00;;;;;7.06;100.00;101508.09;5035290;28;45508;-94
2024/01/07 00:50:40;;;;;;;;;0.00;0.00;;;;;7.04;100.00;101512.38;5017811;28;47873;-95
2024/01/07 00:53:05;;;;;;;;;0.00;0.00;;;;;7.03;100.00;101508.09;5034497;28;54783;-95
2024/01/07 00:55:31;;;;;;;;;0.00;0.00;;;;;7.01;100.00;101512.41;5018243;28;45299;-94
2024/01/07 00:57:56;;;;;;;;;0.67;0.67;;;;;6.98;100.00;101511.56;5034285;28;49821;-94
2024/01/07 01:00:22;;;;;;;;;0.00;0.00;;;;;6.98;100.00;101518.44;5016803;28;66839;-94
2024/01/07 01:02:47;;;;;;;;;0.00;0.00;;;;;6.91;100.00;101502.06;5018762;28;45289;-94
2024/01/07 01:05:12;;;;;;;;;0.00;0.00;;;;;6.95;100.00;101508.09;5047780;28;45340;-94
2024/01/07 01:07:38;;;;;;;;;0.00;0.00;;;;;6.91;100.00;101519.31;5053440;28;69212;-95
2024/01/07 01:10:04;;;;;;;;;0.00;0.00;;;;;6.89;100.00;101508.97;5053993;28;56213;-92
2024/01/07 01:12:29;;;;;;;;;0.00;0.00;;;;;6.92;100.00;101510.69;5038655;28;45399;-94
2024/01/07 01:14:54;;;;;;;;;0.00;0.00;;;;;6.90;100.00;101525.34;5037315;28;58950;-94
2024/01/07 01:17:20;;;;;;;;;0.00;0.00;;;;;6.85;100.00;101521.91;5037281;28;55951;-94
2024/01/07 01:19:45;;;;;;;;;0.00;0.00;;;;;6.81;100.00;101526.22;5037270;28;50465;-94
2024/01/07 01:22:11;;;;;;;;;0.00;0.00;;;;;6.78;100.00;101521.06;5048487;28;45389;-94
2024/01/07 01:24:36;;;;;;;;;0.00;0.00;;;;;6.78;100.00;101528.84;5037592;28;45331;-95
2024/01/07 01:27:01;;;;;;;;;0.00;0.00;;;;;6.71;100.00;101521.94;5053670;28;61589;-94
2024/01/07 01:29:27;;;;;;;;;0.00;0.00;;;;;6.70;100.00;101531.41;5036970;28;47282;-95
2024/01/07 01:31:52;;;;;;;;;0.00;0.00;;;;;6.65;100.00;101529.66;5037153;28;47150;-93
2024/01/07 01:34:17;;;;;;;;;0.00;0.00;;;;;6.62;100.00;101529.69;5049230;28;62653;-95
2024/01/07 01:36:43;;;;;;;;;0.00;0.00;;;;;6.63;100.00;101534.00;5006763;28;65401;-94
2024/01/07 01:39:08;;;;;;;;;0.00;0.00;;;;;6.63;100.00;101541.75;5037885;28;46467;-94
2024/01/07 01:41:33;;;;;;;;;0.00;0.00;;;;;6.65;100.00;101550.38;5019790;28;63788;-94
2024/01/07 01:44:00;;;;;;;;;0.00;0.00;;;;;6.57;100.00;101538.31;5036252;28;65427;-95
2024/01/07 01:46:26;;;;;;;;;0.00;0.00;;;;;6.62;100.00;101540.91;5037267;28;45365;-93
2024/01/07 01:48:51;;;;;;;;;0.00;0.00;;;;;6.65;100.00;101548.66;5036619;28;45550;-94
2024/01/07 01:51:17;;;;;;;;;0.00;0.00;;;;;6.69;100.00;101544.34;5036570;28;52206;-95
2024/01/07 01:53:42;;;;;;;;;0.00;0.00;;;;;6.74;100.00;101556.44;5020618;28;45393;-94
2024/01/07 01:56:08;;;;;;;;;0.00;0.00;;;;;6.79;100.00;101553.81;5032614;28;55091;-94
2024/01/07 01:58:33;;;;;;;;;0.00;0.00;;;;;6.81;100.00;101561.59;5000125;28;61846;-94
2024/01/07 02:00:59;;;;;;;;;0.00;0.00;;;;;6.85;100.00;101560.72;5000157;28;58073;-95
2024/01/07 02:03:25;;;;;;;;;1.00;1.00;;;;;6.86;100.00;101562.47;5017199;28;45189;-95
2024/01/07 02:05:51;;;;;;;;;0.00;0.00;;;;;6.90;100.00;101561.59;5000758;28;45811;-93
2024/01/07 02:08:18;;;;;;;;;0.00;0.00;;;;;6.89;100.00;101560.75;5000321;28;48324;-94
2024/01/07 02:10:44;;;;;;;;;0.00;0.00;;;;;6.90;100.00;101561.59;5000042;28;46023;-94
2024/01/07 02:13:10;;;;;;;;;0.00;0.00;;;;;6.91;100.00;101564.19;5017184;28;45347;-95
2024/01/07 02:15:36;;;;;;;;;0.00;0.00;;;;;6.93;100.00;101572.81;5033872;28;45596;-94
2024/01/07 02:18:01;;;;;;;;;0.00;0.00;;;;;6.91;100.00;101566.78;5017131;28;45221;-95
2024/01/07 02:20:26;;;;;;;;;0.00;0.00;;;;;6.91;100.00;101560.72;5016910;28;45259;-95
2024/01/07 02:22:52;;;;;;;;;0.00;0.00;;;;;6.89;100.00;101563.31;5018065;28;45280;-95
2024/01/07 02:25:17;;;;;;;;;0.00;0.00;;;;;6.92;100.00;101571.06;5016387;28;54848;-95
2024/01/07 02:27:42;;;;;;;;;42.00;42.00;;;;;6.88;100.00;101559.00;5026142;28;55588;-95
2024/01/07 02:30:08;;;;;;;;;0.00;0.00;;;;;6.91;100.00;101563.31;5037089;28;58488;-94
2024/01/07 02:32:35;;;;;;;;;0.00;0.00;;;;;6.91;100.00;101571.94;5053052;28;45300;-94
2024/01/07 02:35:01;;;;;;;;;0.00;0.00;;;;;6.90;100.00;101571.94;5037263;28;45295;-95
2024/01/07 02:37:26;;;;;;;;;0.00;0.00;;;;;6.87;100.00;101566.75;5038775;28;47749;-95
2024/01/07 02:39:52;;;;;;;;;0.00;0.00;;;;;6.88;100.00;101561.59;5016734;28;45808;-94
2024/01/07 02:42:17;;;;;;;;;0.00;0.00;;;;;6.86;100.00;101565.91;5016566;28;45400;-95
2024/01/07 02:44:43;;;;;;;;;0.00;0.00;;;;;6.86;100.00;101567.66;5052446;28;45604;-94
2024/01/07 02:47:08;;;;;;;;;0.00;0.00;;;;;6.91;100.00;101571.06;5052841;28;46415;-95
2024/01/07 02:49:34;;;;;;;;;0.00;0.00;;;;;6.87;100.00;101565.06;5035388;28;66779;-94
2024/01/07 02:51:59;;;;;;;;;0.00;0.00;;;;;6.81;100.00;101566.78;5035396;28;70032;-94
2024/01/07 02:54:24;;;;;;;;;0.00;0.00;;;;;6.77;100.00;101571.94;5036505;28;45407;-94
2024/01/07 02:56:50;;;;;;;;;0.00;0.00;;;;;6.71;100.00;101578.84;5036189;28;50116;-95
2024/01/07 02:59:15;;;;;;;;;0.00;0.00;;;;;6.66;100.00;101577.97;5051883;28;56912;-95
2024/01/07 03:01:41;;;;;;;;;0.00;0.00;;;;;6.66;100.00;101584.00;5052992;28;45374;-94
2024/01/07 03:04:07;;;;;;;;;0.00;0.00;;;;;6.65;100.00;101584.88;5036255;28;45522;-94
2024/01/07 03:06:33;;;;;;;;;0.00;0.00;;;;;6.67;100.00;101588.34;5032768;28;46414;-94
2024/01/07 03:08:58;;;;;;;;;0.00;0.00;;;;;6.64;100.00;101574.53;5015733;28;62012;-95
2024/01/07 03:11:23;;;;;;;;;0.00;0.00;;;;;6.64;100.00;101574.53;4999196;28;55368;-94
2024/01/07 03:13:49;;;;;;;;;0.00;0.00;;;;;6.67;100.00;101580.56;5016305;28;56334;-94
2024/01/07 03:16:24;;;;;;;;;0.00;0.00;;;;;6.74;100.00;101577.13;5022744;28;66484;-95
2024/01/07 03:18:50;;;;;;;;;0.00;0.00;;;;;6.66;100.00;101586.59;5036970;28;45306;-94
2024/01/07 03:21:23;;;;;;;;;0.00;0.00;;;;;6.58;100.00;101589.19;5052310;28;45184;-94
2024/01/07 03:23:49;;;;;;;;;0.00;0.00;;;;;6.53;100.00;101583.13;5040517;28;45242;-95
2024/01/07 03:26:16;;;;;;;;;0.00;0.00;;;;;6.49;100.00;101583.13;5039286;28;46832;-95
2024/01/07 03:28:41;;;;;;;;;0.00;0.00;;;;;6.38;100.00;101571.03;5039104;28;45342;-94
2024/01/07 03:31:09;;;;;;;;;0.00;0.00;;;;;6.33;100.00;101575.38;5055571;28;52346;-95
2024/01/07 03:33:35;;;;;;;;;0.00;0.00;;;;;6.29;100.00;101581.38;5039339;28;45445;-95
2024/01/07 03:36:00;;;;;;;;;0.00;0.00;;;;;6.21;100.00;101580.50;5039127;28;45608;-94
2024/01/07 03:38:25;;;;;;;;;0.00;0.00;;;;;6.16;100.00;101580.47;5038886;28;45315;-94
2024/01/07 03:40:52;;;;;;;;;0.00;0.00;;;;;6.14;100.00;101584.78;5040242;28;45330;-95
2024/01/07 03:43:17;;;;;;;;;0.00;0.00;;;;;6.10;100.00;101593.38;5039156;28;45325;-94
2024/01/07 03:45:43;;;;;;;;;0.00;0.00;;;;;6.10;100.00;101597.69;5021737;28;57622;-94
2024/01/07 03:48:08;;;;;;;;;0.00;0.00;;;;;6.08;100.00;101597.69;5039281;28;45256;-95
2024/01/07 03:50:34;;;;;;;;;0.00;0.00;;;;;6.29;100.00;101591.69;5040358;28;45208;-94
2024/01/07 03:52:59;;;;;;;;;0.00;0.00;;;;;6.11;100.00;101599.41;5021327;28;55416;-94
2024/01/07 03:55:24;;;;;;;;;0.00;0.00;;;;;6.16;100.00;101592.53;5038280;28;69298;-95
2024/01/07 03:57:50;;;;;;;;;0.00;0.00;;;;;6.19;100.00;101592.56;5038609;28;60163;-94
2024/01/07 04:00:16;;;;;;;;;4.00;4.00;;;;;6.20;100.00;101602.91;5038717;28;48357;-95
2024/01/07 04:02:41;;;;;;;;;0.00;0.00;;;;;6.13;100.00;101593.41;5039340;28;45354;-93
2024/01/07 04:05:09;;;;;;;;;0.00;0.00;;;;;6.17;100.00;101589.97;5022301;28;47188;-95
2024/01/07 04:07:34;;;;;;;;;0.00;0.00;;;;;6.28;100.00;101602.91;5038850;28;45370;-94
2024/01/07 04:09:59;;;;;;;;;0.00;0.00;;;;;6.29;100.00;101599.47;5037947;28;54775;-94
2024/01/07 04:12:25;;;;;;;;;0.00;0.00;;;;;6.25;100.00;101602.06;5038214;28;52935;-94
2024/01/07 04:14:50;;;;;;;;;0.00;0.00;;;;;6.20;100.00;101599.44;5021382;28;47095;-94
2024/01/07 04:17:15;;;;;;;;;0.00;0.00;;;;;6.18;100.00;101604.63;5021996;28;46182;-94
2024/01/07 04:19:41;;;;;;;;;0.00;0.00;;;;;6.19;100.00;101595.13;5022371;28;45222;-94
2024/01/07 04:22:06;;;;;;;;;0.00;0.00;;;;;6.32;100.00;101604.66;5021727;28;57567;-94
2024/01/07 04:24:31;;;;;;;;;0.00;0.00;;;;;6.21;100.00;101598.59;5039170;28;52690;-94
2024/01/07 04:26:57;;;;;;;;;0.00;0.00;;;;;6.22;100.00;101604.63;5038295;28;49244;-94
2024/01/07 04:29:22;;;;;;;;;0.00;0.00;;;;;6.22;100.00;101608.06;5053118;28;66507;-94
2024/01/07 04:31:47;;;;;;;;;0.00;0.00;;;;;6.22;100.00;101602.88;5055323;28;45320;-93
2024/01/07 04:34:13;;;;;;;;;0.00;0.00;;;;;6.28;100.00;101599.44;5054262;28;54351;-93
2024/01/07 04:36:38;;;;;;;;;0.00;0.00;;;;;6.29;100.00;101606.38;5054890;28;45485;-94
2024/01/07 04:39:03;;;;;;;;;0.00;0.00;;;;;6.32;100.00;101611.56;5055371;28;45266;-94
2024/01/07 04:41:29;;;;;;;;;0.00;0.00;;;;;6.29;100.00;101614.13;5054998;28;53343;-94
2024/01/07 04:43:54;;;;;;;;;0.00;0.00;;;;;6.28;100.00;101602.91;5054425;28;56005;-94
2024/01/07 04:46:20;;;;;;;;;0.00;0.00;;;;;6.32;100.00;101608.97;5039272;28;59061;-95
2024/01/07 04:48:45;;;;;;;;;0.00;0.00;;;;;6.34;100.00;101610.69;5080141;28;44635;-94
2024/01/07 04:51:10;;;;;;;;;0.00;0.00;;;;;6.47;100.00;101614.16;5055292;28;44779;-94
2024/01/07 04:53:36;;;;;;;;;0.00;0.00;;;;;6.48;100.00;101608.16;5041203;28;67824;-94
2024/01/07 04:56:02;;;;;;;;;0.00;0.00;;;;;6.37;100.00;101612.41;5040549;28;45880;-94
2024/01/07 04:58:28;;;;;;;;;0.00;0.00;;;;;6.37;100.00;101612.41;5066411;28;44720;-94
2024/01/07 05:00:53;;;;;;;;;0.00;0.00;;;;;6.37;100.00;101608.13;5049716;28;48057;-92
2024/01/07 05:03:18;;;;;;;;;0.00;0.00;;;;;6.41;100.00;101619.34;5037760;28;47874;-93
2024/01/07 05:05:44;;;;;;;;;0.00;0.00;;;;;6.42;100.00;101613.28;5037153;28;68257;-92
2024/01/07 05:08:09;;;;;;;;;0.00;0.00;;;;;6.40;100.00;101621.03;5037933;28;45279;-94
2024/01/07 05:10:34;;;;;;;;;0.00;0.00;;;;;6.41;100.00;101624.50;5054210;28;50825;-94
2024/01/07 05:13:04;;;;;;;;;0.00;0.00;;;;;6.44;100.00;101626.22;5036418;28;61232;-94
2024/01/07 05:15:30;;;;;;;;;0.00;0.00;;;;;6.43;100.00;101625.38;5017725;28;45425;-93
2024/01/07 05:17:55;;;;;;;;;0.00;0.00;;;;;6.44;100.00;101619.31;5018184;28;45295;-94
2024/01/07 05:20:21;;;;;;;;;0.00;0.00;;;;;6.47;100.00;101621.94;5044697;28;56489;-95
2024/01/07 05:22:46;;;;;;;;;0.00;0.00;;;;;6.46;100.00;101619.34;5019742;28;64099;-94
2024/01/07 05:25:11;;;;;;;;;0.00;0.00;;;;;6.45;100.00;101620.22;5037750;28;48082;-94
2024/01/07 05:27:37;;;;;;;;;0.00;0.00;;;;;6.48;100.00;101627.94;5038634;28;45550;-94
2024/01/07 05:30:02;;;;;;;;;0.00;0.00;;;;;6.47;100.00;101632.28;5037789;28;51800;-93
2024/01/07 05:32:28;;;;;;;;;1.00;1.00;;;;;6.46;100.00;101638.28;5038581;28;46385;-93
2024/01/07 05:34:53;;;;;;;;;0.00;0.00;;;;;6.45;100.00;101635.72;5038638;28;45294;-94
2024/01/07 05:37:18;;;;;;;;;1.00;1.00;;;;;6.46;100.00;101640.03;5037234;28;46914;-94
2024/01/07 05:39:44;;;;;;;;;0.00;0.00;;;;;6.43;100.00;101647.78;5036837;28;48361;-95
2024/01/07 05:42:09;;;;;;;;;0.00;0.00;;;;;6.44;100.00;101642.59;5053819;28;45465;-95
2024/01/07 05:44:35;;;;;;;;;0.00;0.00;;;;;6.40;100.00;101646.03;5052570;28;46738;-95
2024/01/07 05:47:00;;;;;;;;;0.00;0.00;;;;;6.41;100.00;101642.63;5037480;28;45292;-93
2024/01/07 05:49:25;;;;;;;;;0.00;0.00;;;;;6.37;100.00;101633.97;5053648;28;62716;-94
2024/01/07 05:51:52;;;;;;;;;0.00;0.00;;;;;6.39;100.00;101652.94;5036093;28;47976;-95
2024/01/07 05:54:17;;;;;;;;;0.00;0.00;;;;;6.38;100.00;101650.34;5053802;28;45419;-94
2024/01/07 05:56:43;;;;;;;;;0.00;0.00;;;;;6.42;100.00;101654.66;5036363;28;54355;-95
2024/01/07 05:59:08;;;;;;;;;0.00;0.00;;;;;6.40;100.00;101649.47;5053606;28;49690;-94
2024/01/07 06:01:34;;;;;;;;;0.00;0.00;;;;;6.40;100.00;101654.66;5053062;28;47500;-95
2024/01/07 06:04:00;;;;;;;;;0.00;0.00;;;;;6.35;100.00;101651.22;5053550;28;45355;-94
2024/01/07 06:06:25;;;;;;;;;0.00;0.00;;;;;6.38;100.00;101666.72;5037215;28;45227;-95
2024/01/07 06:08:51;;;;;;;;;0.00;0.00;;;;;6.38;100.00;101660.69;5036806;28;45526;-96
2024/01/07 06:11:20;;;;;;;;;0.00;0.00;;;;;6.36;100.00;101663.28;5052614;28;71800;-96
2024/01/07 06:13:45;;;;;;;;;0.00;0.00;;;;;6.34;100.00;101665.00;5037262;28;45349;-95
2024/01/07 06:16:10;;;;;;;;;0.00;0.00;;;;;6.35;100.00;101663.25;5036998;28;45365;-94
2024/01/07 06:18:36;;;;;;;;;0.00;0.00;;;;;6.35;100.00;101660.69;5053514;28;53533;-95
2024/01/07 06:21:01;;;;;;;;;0.00;0.00;;;;;6.32;100.00;101665.84;5035895;28;60524;-94
2024/01/07 06:23:26;;;;;;;;;0.00;0.00;;;;;6.31;100.00;101666.69;5035459;28;48842;-94
2024/01/07 06:25:52;;;;;;;;;0.00;0.00;;;;;6.32;100.00;101668.44;5053276;28;45259;-94
2024/01/07 06:28:17;;;;;;;;;0.00;0.00;;;;;6.33;100.00;101673.63;5019710;28;58484;-93
2024/01/07 06:30:42;;;;;;;;;0.00;0.00;;;;;6.30;100.00;101667.56;5036205;28;51726;-94
2024/01/07 06:33:08;;;;;;;;;0.00;0.00;;;;;6.31;100.00;101669.28;5019832;28;47425;-95
2024/01/07 06:35:33;;;;;;;;;0.00;0.00;;;;;6.31;100.00;101675.31;5037380;28;45668;-94
2024/01/07 06:37:59;;;;;;;;;0.75;0.75;;;;;6.28;100.00;101669.25;5053201;28;45602;-95
2024/01/07 06:40:25;;;;;;;;;0.00;0.00;;;;;6.27;100.00;101678.75;5048851;28;47016;-94
2024/01/07 06:42:51;;;;;;;;;0.00;0.00;;;;;6.27;100.00;101670.13;5017342;28;45281;-94
2024/01/07 06:45:17;;;;;;;;;0.00;0.00;;;;;6.28;100.00;101674.44;5017695;28;45379;-94
2024/01/07 06:47:42;;;;;;;;;0.00;0.00;;;;;6.28;100.00;101674.44;5049996;28;45461;-94
2024/01/07 06:50:09;;;;;;;;;0.00;0.00;;;;;6.24;100.00;101671.00;5031456;28;47228;-93
2024/01/07 06:52:35;;;;;;;;;0.00;0.00;;;;;6.13;100.00;101668.38;5037297;28;45371;-94
2024/01/07 06:55:01;;;;;;;;;0.00;0.00;;;;;6.14;100.00;101676.97;5027905;28;50751;-94
2024/01/07 06:57:26;;;;;;;;;0.00;0.00;;;;;6.14;100.00;101683.00;5039978;28;45306;-94
2024/01/07 06:59:51;;;;;;;;;0.00;0.00;;;;;6.11;100.00;101677.84;5039864;28;46451;-95
2024/01/07 07:02:17;;;;;;;;;0.00;0.00;;;;;6.13;100.00;101689.06;5023477;28;45412;-94
2024/01/07 07:04:42;;;;;;;;;0.00;0.00;;;;;6.13;100.00;101691.63;5038957;28;55967;-95
2024/01/07 07:07:07;;;;;;;;;0.00;0.00;;;;;6.12;100.00;101695.06;5040547;28;45491;-95
2024/01/07 07:09:34;;;;;;;;;0.00;0.00;;;;;6.18;100.00;101699.41;5019832;28;46254;-93
2024/01/07 07:11:59;;;;;;;;;0.00;0.00;;;;;6.11;100.00;101698.53;5003363;28;45396;-95
2024/01/07 07:14:25;;;;;;;;;0.00;0.00;;;;;6.04;100.00;101698.50;5020836;28;45214;-95
2024/01/07 07:16:50;;;;;;;;;0.00;0.00;;;;;5.90;100.00;101691.47;5003341;28;45703;-94
2024/01/07 07:19:16;;;;;;;;;0.00;0.00;;;;;5.89;100.00;101707.84;5002389;28;55768;-94
2024/01/07 07:21:42;;;;;;;;;0.00;0.00;;;;;5.78;100.00;101705.19;5021166;28;45394;-95
2024/01/07 07:24:08;;;;;;;;;0.00;0.00;;;;;5.75;100.00;101717.22;5055545;28;45337;-95
2024/01/07 07:26:35;;;;;;;;;0.00;0.00;;;;;5.67;100.00;101712.00;5039850;28;45503;-93
2024/01/07 07:29:01;;;;;;;;;0.00;0.00;;;;;5.65;100.00;101718.03;5039194;28;46352;-95
2024/01/07 07:31:27;;;;;;;;;0.00;0.00;;;;;5.63;100.00;101724.03;5039201;28;45268;-94
2024/01/07 07:33:52;;;;;;;;;0.00;0.00;;;;;5.65;100.00;101716.28;5039099;28;46147;-95
2024/01/07 07:36:17;;;;;;;;;0.00;0.00;;;;;5.70;100.00;101719.78;5024408;28;48298;-95
2024/01/07 07:38:43;;;;;;;;;0.00;0.00;;;;;5.76;100.00;101724.97;5003796;28;68376;-86
2024/01/07 07:41:18;;;;;;;;;0.00;0.00;;;;;5.79;100.00;101718.97;5054922;28;46128;-87
2024/01/07 07:43:43;;;;;;;;;0.00;0.00;;;;;5.82;100.00;101719.84;5039751;28;45457;-88
2024/01/07 07:46:16;;;;;;;;;0.00;0.00;;;;;5.84;100.00;101721.59;5038669;28;45351;-90
2024/01/07 07:48:47;;;;;;;;;0.00;0.00;;;;;5.80;100.00;101720.69;5054508;28;45631;-90
2024/01/07 07:51:23;;;;;;;;;0.00;0.00;;;;;5.82;100.00;101722.44;5038181;28;45473;-92
2024/01/07 07:54:01;;;;;;;;;;;;;;;;;;;;;
2024/01/07 07:56:39;;;;;;;;;;;;;;;;;;;;;
2024/01/07 07:59:27;;;;;;;;;0.75;0.75;;;;;5.94;100.00;101733.69;5036499;28;76289;-91
2024/01/07 08:01:55;;;;;;;;;0.00;0.00;;;;;5.94;100.00;101729.41;5040090;28;45391;-91
2024/01/07 08:05:09;;;;;;;;;10.00;1.00;;;;;5.95;100.00;101738.03;5038996;28;45516;-93
2024/01/07 08:07:58;;;;;;;;;0.00;0.00;;;;;5.90;100.00;101735.41;5000502;28;45501;-94
2024/01/07 08:10:28;;;;;;;;;0.00;0.00;;;;;5.92;100.00;101751.78;5018077;28;45650;-92
2024/01/07 08:13:02;;;;;;;;;0.00;0.00;;;;;5.90;100.00;101744.88;4985135;28;45425;-90
2024/01/07 08:15:28;;;;;;;;;0.00;0.00;;;;;5.91;100.00;101744.88;4997467;28;45426;-90
2024/01/07 08:17:59;;;;;;;;;0.00;0.00;;;;;5.99;100.00;101755.31;4997798;28;48107;-87
2024/01/07 08:20:33;;;;;;;;;0.00;0.00;;;;;6.01;100.00;101758.75;4997199;28;47887;-92
2024/01/07 08:23:04;;;;;;;;;0.00;0.00;;;;;6.01;100.00;101757.03;4998290;28;45453;-92
2024/01/07 08:25:32;;;;;;;;;0.00;0.00;;;;;6.05;100.00;101763.09;5013854;28;45425;-87
2024/01/07 08:27:58;;;;;;;;;0.00;0.00;;;;;6.11;100.00;101759.69;5018239;28;45454;-90
2024/01/07 08:30:23;;;;;;;;;0.00;0.00;;;;;6.08;100.00;101765.69;5000568;28;48580;-88
2024/01/07 08:32:49;;;;;;;;;1.00;1.00;;;;;6.10;100.00;101776.06;5001155;28;45257;-90
2024/01/07 08:35:14;;;;;;;;;0.00;0.00;;;;;6.11;100.00;101765.72;5000262;28;48024;-91
2024/01/07 08:37:40;;;;;;;;;0.00;0.00;;;;;6.14;100.00;101770.91;5017764;28;45247;-92
2024/01/07 08:40:06;;;;;;;;;0.00;0.00;;;;;6.19;100.00;101770.94;5017283;28;45614;-90
2024/01/07 08:42:43;;;;;;;;;0.00;0.00;;;;;6.19;100.00;101769.22;4988561;28;45391;-94
2024/01/07 08:45:11;;;;;;;;;0.00;0.00;;;;;6.18;100.00;101772.66;5035544;28;45339;-93
2024/01/07 08:47:37;;;;;;;;;0.00;0.00;;;;;6.21;100.00;101771.81;5037919;28;45287;-92
2024/01/07 08:50:03;;;;;;;;;0.00;0.00;;;;;6.26;100.00;101777.00;5054252;28;47181;-93
2024/01/07 08:52:28;;;;;;;;;0.00;0.00;;;;;6.28;100.00;101789.09;5039001;28;45304;-92
2024/01/07 08:54:54;;;;;;;;;0.00;0.00;;;;;6.28;100.00;101788.22;5038382;28;45231;-87
2024/01/07 08:57:20;;;;;;;;;0.00;0.00;;;;;6.30;100.00;101781.34;5052651;28;45310;-85
2024/01/07 08:59:45;;;;;;;;;0.00;0.00;;;;;6.39;100.00;101800.38;5037460;28;46547;-91
2024/01/07 09:02:11;;;;;;;;;0.00;0.00;;;;;6.39;100.00;101797.78;5037654;28;51276;-91
2024/01/07 09:04:36;;;;;;;;;0.00;0.00;;;;;6.37;100.00;101786.56;5037344;28;46171;-92
2024/01/07 09:07:02;;;;;;;;;0.00;0.00;;;;;6.44;100.00;101787.44;5038517;28;45564;-87
2024/01/07 09:09:30;;;;;;;;;0.00;0.00;;;;;6.40;100.00;101799.50;5021103;28;47201;-89
2024/01/07 09:11:56;;;;;;;;;0.00;0.00;;;;;6.35;100.00;101790.88;5036884;28;45547;-93
2024/01/07 09:14:22;;;;;;;;;0.00;0.00;;;;;6.39;100.00;101795.19;5036000;28;45631;-88
2024/01/07 09:16:50;;;;;;;;;0.00;0.00;;;;;6.36;100.00;101799.47;5053234;28;45316;-89
2024/01/07 09:19:25;;;;;;;;;;;;;;;;;;;;;
2024/01/07 09:21:53;;;;;;;;;0.00;0.00;;;;;6.33;100.00;101794.28;5034756;28;73919;-88
2024/01/07 09:24:19;;;;;;;;;0.00;0.00;;;;;6.37;100.00;101806.34;5054274;28;45305;-88
2024/01/07 09:26:44;;;;;;;;;10.00;6.00;;;;;6.38;100.00;101798.63;5018929;28;45564;-85
2024/01/07 09:29:10;;;;;;;;;0.00;0.00;;;;;6.40;100.00;101803.81;5035794;28;47138;-85
2024/01/07 09:31:35;;;;;;;;;0.00;0.00;;;;;6.40;100.00;101811.56;5035832;28;45437;-85
2024/01/07 09:34:02;;;;;;;;;0.00;0.00;;;;;6.44;100.00;101815.03;5035981;28;45345;-89
2024/01/07 09:36:27;;;;;;;;;4.00;0.00;;;;;6.47;100.00;101808.16;5033232;28;45517;-87
2024/01/07 09:38:55;;;;;;;;;0.00;0.00;;;;;6.44;100.00;101805.53;5052202;28;52259;-88
2024/01/07 09:41:26;;;;;;;;;0.00;0.00;;;;;6.45;100.00;101809.00;5036003;28;45423;-88
2024/01/07 09:44:29;;;;;;;;;0.00;0.00;;;;;6.49;100.00;101811.63;5036731;28;45289;-89
2024/01/07 09:46:55;;;;;;;;;0.00;0.00;;;;;6.51;100.00;101816.78;5037981;28;45330;-88
2024/01/07 09:49:21;;;;;;;;;0.00;0.00;;;;;6.54;100.00;101824.59;5036756;28;45496;-88
2024/01/07 09:51:49;;;;;;;;;0.75;0.75;;;;;6.53;100.00;101823.69;5031377;28;45318;-85
2024/01/07 09:54:20;;;;;;;;;0.00;0.00;;;;;6.55;100.00;101815.94;5015742;28;58048;-86
2024/01/07 09:56:51;;;;;;;;;0.00;0.00;;;;;6.63;100.00;101824.63;4999407;28;45335;-86
2024/01/07 09:59:20;;;;;;;;;0.00;0.00;;;;;6.65;100.00;101830.69;5021065;28;46702;-89
2024/01/07 10:01:46;;;;;;;;;0.00;0.00;;;;;6.64;100.00;101828.94;5035235;28;45480;-87
2024/01/07 10:04:11;;;;;;;;;0.00;0.00;;;;;6.64;100.00;101825.50;5035390;28;45401;-84
2024/01/07 10:06:37;;;;;;;;;0.00;0.00;;;;;6.63;100.00;101827.22;5035678;28;65870;-85
2024/01/07 10:09:03;;;;;;;;;0.00;0.00;;;;;6.68;100.00;101841.03;5017759;28;47217;-87
2024/01/07 10:11:29;;;;;;;;;0.00;0.00;;;;;6.70;100.00;101831.53;5031135;28;45387;-87
2024/01/07 10:13:54;;;;;;;;;2.25;2.25;;;;;6.69;100.00;101824.66;5036177;28;45354;-88
2024/01/07 10:16:19;;;;;;;;;0.00;0.00;;;;;6.76;100.00;101830.69;5051562;28;45571;-87
2024/01/07 10:18:49;;;;;;;;;0.00;0.00;;;;;6.69;100.00;101819.47;5051453;28;53550;-89
2024/01/07 10:21:17;;;;;;;;;0.00;0.00;;;;;6.72;100.00;101826.38;5035939;28;45538;-88
2024/01/07 10:23:53;;;;;;;;;;;;;;;;;;;;;
2024/01/07 10:26:19;;;;;;;;;0.00;0.00;;;;;6.70;100.00;101828.94;5034201;28;70259;-87
2024/01/07 10:28:50;;;;;;;;;0.00;0.00;;;;;6.73;100.00;101833.28;5034655;28;72286;-88
2024/01/07 10:31:16;;;;;;;;;0.00;0.00;;;;;6.76;100.00;101833.28;5034678;28;45429;-87
2024/01/07 10:33:41;;;;;;;;;0.00;0.00;;;;;6.72;100.00;101826.38;5034973;28;58927;-87
2024/01/07 10:36:07;;;;;;;;;0.00;0.00;;;;;6.79;100.00;101828.13;5034864;28;60490;-88
2024/01/07 10:38:33;;;;;;;;;0.00;0.00;;;;;6.85;100.00;101827.28;5035353;28;46123;-87
2024/01/07 10:41:07;;;;;;;;;0.00;0.00;;;;;6.89;100.00;101835.09;5035481;28;45820;-88
2024/01/07 10:43:35;;;;;;;;;0.00;0.00;;;;;6.89;100.00;101827.31;5033918;28;45311;-89
2024/01/07 10:46:04;;;;;;;;;0.00;0.00;;;;;6.91;100.00;101832.47;5035835;28;45250;-89
2024/01/07 10:48:37;;;;;;;;;0.00;0.00;;;;;7.09;100.00;101827.38;5036645;28;47173;-92
2024/01/07 10:51:48;;;;;;;;;0.00;0.00;;;;;7.13;100.00;101831.72;5029653;28;45563;-91
2024/01/07 10:54:16;;;;;;;;;0.00;0.00;;;;;7.14;100.00;101832.59;4995622;28;45434;-93
2024/01/07 10:56:49;;;;;;;;;0.00;0.00;;;;;7.16;100.00;101838.63;4996718;28;45560;-91
2024/01/07 10:59:18;;;;;;;;;0.00;0.00;;;;;6.98;100.00;101832.53;4997609;28;47286;-93
2024/01/07 11:01:43;;;;;;;;;0.00;0.00;;;;;6.99;100.00;101835.97;4998230;28;45577;-88
2024/01/07 11:04:31;;;;;;;;;0.00;0.00;;;;;7.04;100.00;101842.06;4998278;28;47891;-88
2024/01/07 11:07:37;;;;;;;;;0.00;0.00;;;;;7.01;100.00;101833.41;5010876;28;45361;-92
2024/01/07 11:10:10;;;;;;;;;0.00;0.00;;;;;6.95;100.00;101844.59;5004359;28;45328;-88
2024/01/07 11:12:36;;;;;;;;;0.00;0.00;;;;;6.90;100.00;101825.59;4995153;28;45459;-95
2024/01/07 11:15:02;;;;;;;;;0.00;0.00;;;;;6.89;100.00;101845.44;4995592;28;45408;-88
2024/01/07 11:17:41;;;;;;;;;0.00;0.00;;;;;6.82;100.00;101846.28;5013346;28;45545;-87
2024/01/07 11:20:10;;;;;;;;;0.00;0.00;;;;;6.85;100.00;101835.91;5013873;28;47165;-93
2024/01/07 11:22:38;;;;;;;;;0.00;0.00;;;;;6.85;100.00;101841.09;5014750;28;45423;-92
2024/01/07 11:25:32;;;;;;;;;0.00;0.00;;;;;6.89;100.00;101845.44;5014849;28;45237;-91
2024/01/07 11:27:58;;;;;;;;;0.75;0.00;;;;;6.88;100.00;101835.94;5013549;28;45295;-88
2024/01/07 11:30:25;;;;;;;;;0.00;0.00;;;;;6.90;100.00;101843.72;5018799;28;45558;-89